Terminal Aerodrome Forecast
Issued by NWS Kansas City/Pleasant Hill, MO

Home | Current Version | Previous Version | Text Only | Print | Product List | Glossary On
Versions: 1 2 3 4 5 6 7 8 9 10 11 12 13 14 15 16 17
000
FTUS43 KEAX 231139 CCA
TAFMCI
TAF COR
KMCI 231139Z 2312/2412 13015KT P6SM -DZ VCSH OVC030
     FM231600 16014KT P6SM BKN045
     FM231700 17014G24KT P6SM BKN060
     FM240300 18013KT P6SM FEW250 WS020/18045KT
     FM241100 18011KT P6SM BKN150=

USA.gov is the U.S. government's official web portal to all federal, state and local government web resources and services.